createdAt,value
2018-05-23T00:00:11.135Z,16.23
2018-05-23T00:02:39.155Z,16.50
2018-05-23T00:05:07.360Z,17.13
2018-05-23T00:07:36.459Z,16.13
2018-05-23T00:10:05.196Z,16.43
2018-05-23T00:12:33.226Z,16.57
2018-05-23T00:15:01.346Z,17.47
2018-05-23T00:17:29.305Z,17.20
2018-05-23T00:19:57.175Z,16.20
2018-05-23T00:22:25.495Z,16.33
2018-05-23T00:24:54.568Z,17.40
2018-05-23T00:27:22.944Z,17.83
2018-05-23T00:29:50.791Z,17.50
2018-05-23T00:32:18.673Z,16.17
2018-05-23T00:34:47.141Z,16.20
2018-05-23T00:37:14.998Z,16.10
2018-05-23T00:39:43.487Z,16.67
2018-05-23T00:42:11.762Z,16.93
2018-05-23T00:44:39.640Z,16.93
2018-05-23T00:47:07.784Z,17.30
2018-05-23T00:49:35.766Z,16.77
2018-05-23T00:52:03.601Z,16.43
2018-05-23T00:54:32.526Z,16.70
2018-05-23T00:57:00.381Z,16.13
2018-05-23T00:59:28.364Z,16.67
2018-05-23T01:01:56.329Z,15.83
2018-05-23T01:04:24.432Z,15.93
2018-05-23T01:06:53.422Z,16.47
2018-05-23T01:09:22.072Z,16.57
2018-05-23T01:11:49.942Z,16.10
2018-05-23T01:14:18.022Z,17.50
2018-05-23T01:16:46.179Z,17.10
2018-05-23T01:19:14.377Z,15.73
2018-05-23T01:21:42.630Z,16.13
2018-05-23T01:24:10.841Z,16.10
2018-05-23T01:26:39.600Z,16.50
2018-05-23T01:29:07.824Z,16.37
2018-05-23T01:31:35.731Z,16.40
2018-05-23T01:34:03.811Z,16.40
2018-05-23T01:36:32.092Z,16.40
2018-05-23T01:39:00.371Z,15.73
2018-05-23T01:41:28.636Z,16.33
2018-05-23T01:43:56.511Z,15.77
2018-05-23T01:46:24.810Z,16.47
2018-05-23T01:49:05.352Z,15.40
2018-05-23T01:51:33.321Z,16.07
2018-05-23T01:54:01.178Z,15.70
2018-05-23T01:56:29.055Z,15.50
2018-05-23T01:58:57.013Z,15.83
2018-05-23T02:01:24.870Z,15.47
2018-05-23T02:03:52.741Z,15.87
2018-05-23T02:06:20.913Z,15.30
2018-05-23T02:08:49.006Z,15.93
2018-05-23T02:11:16.747Z,17.00
2018-05-23T02:13:44.619Z,16.10
2018-05-23T02:16:12.893Z,15.77
2018-05-23T02:18:40.964Z,15.43
2018-05-23T02:21:08.985Z,15.90
2018-05-23T02:23:37.208Z,15.10
2018-05-23T02:26:06.392Z,15.50
2018-05-23T02:28:34.269Z,15.27
2018-05-23T02:31:02.351Z,15.37
2018-05-23T02:33:30.309Z,14.13
2018-05-23T02:35:58.485Z,14.53
2018-05-23T02:38:26.849Z,14.17
2018-05-23T02:40:55.109Z,14.00
2018-05-23T02:43:22.888Z,16.43
2018-05-23T02:45:51.197Z,15.97
2018-05-23T02:48:19.462Z,14.53
2018-05-23T02:50:47.434Z,15.10
2018-05-23T02:53:15.591Z,14.47
2018-05-23T02:55:43.866Z,13.77
2018-05-23T02:58:11.763Z,14.47
2018-05-23T03:00:40.835Z,16.33
2018-05-23T03:03:08.717Z,18.80
2018-05-23T03:05:36.653Z,15.33
2018-05-23T03:08:04.526Z,15.47
2018-05-23T03:10:32.412Z,14.43
2018-05-23T03:13:00.256Z,14.57
2018-05-23T03:15:28.155Z,15.13
2018-05-23T03:17:56.914Z,14.30
2018-05-23T03:20:25.090Z,13.80
2018-05-23T03:22:52.961Z,15.10
2018-05-23T03:25:20.843Z,16.23
2018-05-23T03:27:48.882Z,14.20
2018-05-23T03:30:16.552Z,14.03
2018-05-23T03:32:45.755Z,14.27
2018-05-23T03:35:13.731Z,14.10
2018-05-23T03:37:42.371Z,14.17
2018-05-23T03:40:10.483Z,15.67
2018-05-23T03:42:38.359Z,14.87
2018-05-23T03:45:06.228Z,15.70
2018-05-23T03:47:35.001Z,16.00
2018-05-23T03:50:03.323Z,14.73
2018-05-23T03:52:31.882Z,14.60
2018-05-23T03:55:01.205Z,15.00
2018-05-23T03:57:29.190Z,15.60
2018-05-23T04:00:09.070Z,16.37
2018-05-23T04:02:48.712Z,14.90
2018-05-23T04:05:28.362Z,15.70
2018-05-23T04:07:56.317Z,15.03
2018-05-23T04:10:24.444Z,15.33
2018-05-23T04:12:53.305Z,14.00
2018-05-23T04:15:22.532Z,16.40
2018-05-23T04:17:51.077Z,15.93
2018-05-23T04:20:19.032Z,17.60
2018-05-23T04:22:47.249Z,16.77
2018-05-23T04:25:16.360Z,15.10
2018-05-23T04:27:44.692Z,15.23
2018-05-23T04:30:12.718Z,15.93
2018-05-23T04:32:41.433Z,15.83
2018-05-23T04:35:09.532Z,17.40
2018-05-23T04:37:38.050Z,16.30
2018-05-23T04:40:06.483Z,15.93
2018-05-23T04:42:34.542Z,15.60
2018-05-23T04:45:03.076Z,16.17
2018-05-23T04:47:31.479Z,17.43
2018-05-23T04:50:00.203Z,17.50
2018-05-23T04:52:28.468Z,17.27
2018-05-23T04:54:56.467Z,17.90
2018-05-23T04:57:25.639Z,16.60
2018-05-23T04:59:53.704Z,16.33
2018-05-23T05:02:21.992Z,17.33
2018-05-23T05:04:50.574Z,16.20
2018-05-23T05:07:18.574Z,16.07
2018-05-23T05:09:47.970Z,17.23
2018-05-23T05:12:16.976Z,18.33
2018-05-23T05:14:45.401Z,16.90
2018-05-23T05:17:13.975Z,17.13
2018-05-23T05:19:42.168Z,18.00
2018-05-23T05:22:10.352Z,16.90
2018-05-23T05:24:38.807Z,16.13
2018-05-23T05:27:07.107Z,16.57
2018-05-23T05:29:35.118Z,17.40
2018-05-23T05:32:03.639Z,16.57
2018-05-23T05:34:32.247Z,18.13
2018-05-23T05:37:00.595Z,16.67
2018-05-23T05:39:28.685Z,18.80
2018-05-23T05:41:56.931Z,15.93
2018-05-23T05:44:25.271Z,16.13
2018-05-23T05:46:54.297Z,18.63
2018-05-23T05:49:23.106Z,20.03
2018-05-23T05:51:51.121Z,17.53
2018-05-23T05:54:20.060Z,19.70
2018-05-23T05:56:48.290Z,19.67
2018-05-23T05:59:16.535Z,19.43
2018-05-23T06:01:44.685Z,19.60
2018-05-23T06:04:13.261Z,19.10
2018-05-23T06:06:41.654Z,18.90
2018-05-23T06:09:10.144Z,17.27
2018-05-23T06:11:38.308Z,18.47
2018-05-23T06:14:06.653Z,19.20
2018-05-23T06:16:35.280Z,19.07
2018-05-23T06:19:03.462Z,19.53
2018-05-23T06:21:32.920Z,19.20
2018-05-23T06:24:01.225Z,19.50
2018-05-23T06:26:29.879Z,18.63
2018-05-23T06:28:58.742Z,19.90
2018-05-23T06:31:27.995Z,20.47
2018-05-23T06:33:56.681Z,19.63
2018-05-23T06:36:24.804Z,19.00
2018-05-23T06:38:53.328Z,19.90
2018-05-23T06:41:21.211Z,20.30
2018-05-23T06:43:49.182Z,19.67
2018-05-23T06:46:17.762Z,19.00
2018-05-23T06:48:46.140Z,21.80
2018-05-23T06:51:14.216Z,20.30
2018-05-23T06:53:42.532Z,20.63
2018-05-23T06:56:10.857Z,19.60
2018-05-23T06:58:39.308Z,22.13
2018-05-23T07:01:07.827Z,20.90
2018-05-23T07:03:35.686Z,20.10
2018-05-23T07:06:04.120Z,23.00
2018-05-23T07:08:32.327Z,20.37
2018-05-23T07:11:00.467Z,22.67
2018-05-23T07:13:28.693Z,22.00
2018-05-23T07:15:57.056Z,21.10
2018-05-23T07:18:25.197Z,22.30
2018-05-23T07:20:53.514Z,21.00
2018-05-23T07:23:21.589Z,21.50
2018-05-23T07:25:49.950Z,20.80
2018-05-23T07:28:18.141Z,23.70
2018-05-23T07:30:46.264Z,24.00
2018-05-23T07:33:14.686Z,23.33
2018-05-23T07:35:44.105Z,23.27
2018-05-23T07:38:12.517Z,23.73
2018-05-23T07:40:41.171Z,23.10
2018-05-23T07:43:09.583Z,21.57
2018-05-23T07:45:38.012Z,23.13
2018-05-23T07:48:06.268Z,20.90
2018-05-23T07:50:34.477Z,20.13
2018-05-23T07:53:02.686Z,22.03
2018-05-23T07:55:30.818Z,21.00
2018-05-23T07:57:59.329Z,22.93
2018-05-23T08:00:28.495Z,22.37
2018-05-23T08:02:57.924Z,20.77
2018-05-23T08:05:26.989Z,20.37
2018-05-23T08:07:55.298Z,20.97
2018-05-23T08:10:24.351Z,21.27
2018-05-23T08:12:52.752Z,21.73
2018-05-23T08:15:21.927Z,22.43
2018-05-23T08:17:50.114Z,19.87
2018-05-23T08:20:18.519Z,20.00
2018-05-23T08:22:47.778Z,21.10
2018-05-23T08:25:15.765Z,20.80
2018-05-23T08:27:44.033Z,20.07
2018-05-23T08:30:12.359Z,19.53
2018-05-23T08:32:40.361Z,19.90
2018-05-23T08:35:08.658Z,17.42
2018-05-23T08:37:36.867Z,17.37
2018-05-23T08:40:05.053Z,16.23
2018-05-23T08:42:33.368Z,17.70
2018-05-23T08:45:01.567Z,16.80
2018-05-23T08:47:30.686Z,15.35
2018-05-23T08:49:59.879Z,15.68
2018-05-23T08:52:28.217Z,15.52
2018-05-23T08:54:57.091Z,14.50
2018-05-23T08:57:25.175Z,14.87
2018-05-23T08:59:53.354Z,23.55
2018-05-23T09:02:21.354Z,14.02
2018-05-23T09:04:50.240Z,14.47
2018-05-23T09:07:19.431Z,15.03
2018-05-23T09:09:48.302Z,14.00
2018-05-23T09:12:16.484Z,14.60
2018-05-23T09:14:45.654Z,14.63
2018-05-23T09:17:13.949Z,13.13
2018-05-23T09:19:42.402Z,13.40
2018-05-23T09:22:11.889Z,13.62
2018-05-23T09:24:40.197Z,14.52
2018-05-23T09:27:08.874Z,14.68
2018-05-23T09:29:37.200Z,14.05
2018-05-23T09:32:05.946Z,13.32
2018-05-23T09:34:34.498Z,13.18
2018-05-23T09:37:02.498Z,13.68
2018-05-23T09:39:30.666Z,12.95
2018-05-23T09:41:58.759Z,12.50
2018-05-23T09:44:27.028Z,14.02
2018-05-23T09:46:55.546Z,12.25
2018-05-23T09:49:24.763Z,12.10
2018-05-23T09:51:53.273Z,11.65
2018-05-23T09:54:21.451Z,11.45
2018-05-23T09:56:50.018Z,11.50
2018-05-23T09:59:18.259Z,10.55
2018-05-23T10:01:46.290Z,10.60
2018-05-23T10:04:14.661Z,10.82
2018-05-23T10:06:43.041Z,11.15
2018-05-23T10:09:12.174Z,11.20
2018-05-23T10:11:41.479Z,10.80
2018-05-23T10:14:09.713Z,11.40
2018-05-23T10:16:37.911Z,11.10
2018-05-23T10:19:06.881Z,12.27
2018-05-23T10:21:35.025Z,12.15
2018-05-23T10:24:03.721Z,13.00
2018-05-23T10:26:32.272Z,11.52
2018-05-23T10:29:00.391Z,11.18
2018-05-23T10:31:28.716Z,11.07
2018-05-23T10:33:57.160Z,13.32
2018-05-23T10:36:25.157Z,12.63
2018-05-23T10:38:53.508Z,12.30
2018-05-23T10:41:21.767Z,12.63
2018-05-23T10:43:49.995Z,12.20
2018-05-23T10:46:18.109Z,13.75
2018-05-23T10:48:47.127Z,14.70
2018-05-23T10:51:15.488Z,14.45
2018-05-23T10:53:43.597Z,14.23
2018-05-23T10:56:12.613Z,14.75
2018-05-23T10:58:40.718Z,14.32
2018-05-23T11:01:09.568Z,13.50
2018-05-23T11:03:37.542Z,13.05
2018-05-23T11:06:05.547Z,13.20
2018-05-23T11:08:33.626Z,13.62
2018-05-23T11:11:01.810Z,12.52
2018-05-23T11:13:29.966Z,12.52
2018-05-23T11:15:58.486Z,11.85
2018-05-23T11:18:27.340Z,12.27
2018-05-23T11:20:55.563Z,13.38
2018-05-23T11:23:24.245Z,12.40
2018-05-23T11:25:52.526Z,13.38
2018-05-23T11:28:20.949Z,14.23
2018-05-23T11:30:50.358Z,13.88
2018-05-23T11:33:19.501Z,12.45
2018-05-23T11:35:48.665Z,13.70
2018-05-23T11:38:16.877Z,14.57
2018-05-23T11:40:45.732Z,13.60
2018-05-23T11:43:14.239Z,13.93
2018-05-23T11:45:42.507Z,12.65
2018-05-23T11:48:11.471Z,12.35
2018-05-23T11:50:39.692Z,13.27
2018-05-23T11:53:07.717Z,12.43
2018-05-23T11:55:35.981Z,13.75
2018-05-23T11:58:04.165Z,12.85
2018-05-23T12:00:32.869Z,12.63
2018-05-23T12:03:01.934Z,13.18
2018-05-23T12:05:30.056Z,13.05
2018-05-23T12:07:58.590Z,13.60
2018-05-23T12:10:26.784Z,11.98
2018-05-23T12:12:54.847Z,12.02
2018-05-23T12:15:23.669Z,12.75
2018-05-23T12:17:52.298Z,14.13
2018-05-23T12:20:20.705Z,12.75
2018-05-23T12:22:48.979Z,13.27
2018-05-23T12:25:17.496Z,12.77
2018-05-23T12:27:45.607Z,12.60
2018-05-23T12:30:13.941Z,12.25
2018-05-23T12:32:42.245Z,12.77
2018-05-23T12:35:10.658Z,12.77
2018-05-23T12:37:38.857Z,13.82
2018-05-23T12:40:08.299Z,13.67
2018-05-23T12:42:36.516Z,13.90
2018-05-23T12:45:06.429Z,14.37
2018-05-23T12:47:34.806Z,14.67
2018-05-23T12:50:03.819Z,13.47
2018-05-23T12:52:33.147Z,12.30
2018-05-23T12:55:01.677Z,13.63
2018-05-23T12:57:29.650Z,12.30
2018-05-23T12:59:57.861Z,15.10
2018-05-23T13:02:26.197Z,14.30
2018-05-23T13:04:54.172Z,14.23
2018-05-23T13:07:22.612Z,13.50
2018-05-23T13:09:51.026Z,14.80
2018-05-23T13:12:19.152Z,15.80
2018-05-23T13:14:48.617Z,14.57
2018-05-23T13:17:17.189Z,15.23
2018-05-23T13:19:45.424Z,16.23
2018-05-23T13:22:13.837Z,16.80
2018-05-23T13:24:42.318Z,15.60
2018-05-23T13:27:13.373Z,16.57
2018-05-23T13:29:42.411Z,15.93
2018-05-23T13:32:10.927Z,18.60
2018-05-23T13:34:39.136Z,16.20
2018-05-23T13:37:08.129Z,16.77
2018-05-23T13:39:36.981Z,15.20
2018-05-23T13:42:05.065Z,16.03
2018-05-23T13:44:33.138Z,17.00
2018-05-23T13:47:02.177Z,17.70
2018-05-23T13:49:30.506Z,16.20
2018-05-23T13:51:58.845Z,16.93
2018-05-23T13:54:27.060Z,16.80
2018-05-23T13:56:55.276Z,18.90
2018-05-23T13:59:24.373Z,17.13
2018-05-23T14:01:52.969Z,17.10
2018-05-23T14:04:20.775Z,18.73
2018-05-23T14:06:49.763Z,17.37
2018-05-23T14:09:18.276Z,17.67
2018-05-23T14:11:47.402Z,17.77
2018-05-23T14:14:15.810Z,17.63
2018-05-23T14:16:44.583Z,17.63
2018-05-23T14:19:13.246Z,18.27
2018-05-23T14:21:49.702Z,17.17
2018-05-23T14:24:20.002Z,17.40
2018-05-23T14:26:48.645Z,17.10
2018-05-23T14:29:16.814Z,15.90
2018-05-23T14:31:45.427Z,16.00
2018-05-23T14:34:14.831Z,16.60
2018-05-23T14:36:44.271Z,16.03
2018-05-23T14:39:12.307Z,16.10
2018-05-23T14:41:40.254Z,17.17
2018-05-23T14:44:08.334Z,15.80
2018-05-23T14:46:37.103Z,16.97
2018-05-23T14:49:05.089Z,19.47
2018-05-23T14:51:33.119Z,17.00
2018-05-23T14:54:01.343Z,17.80
2018-05-23T14:56:29.294Z,18.40
2018-05-23T14:58:57.342Z,16.80
2018-05-23T15:01:25.439Z,16.37
2018-05-23T15:03:53.422Z,15.50
2018-05-23T15:06:21.505Z,16.87
2018-05-23T15:08:49.550Z,16.27
2018-05-23T15:11:17.630Z,16.00
2018-05-23T15:13:45.695Z,18.30
2018-05-23T15:16:13.679Z,16.70
2018-05-23T15:18:41.742Z,15.47
2018-05-23T15:21:09.822Z,16.40
2018-05-23T15:23:38.590Z,16.97
2018-05-23T15:26:06.670Z,15.80
2018-05-23T15:28:34.734Z,17.97
2018-05-23T15:31:02.626Z,15.70
2018-05-23T15:33:30.670Z,18.37
2018-05-23T15:35:59.261Z,19.90
2018-05-23T15:38:27.229Z,17.80
2018-05-23T15:40:55.102Z,17.50
2018-05-23T15:43:23.680Z,15.60
2018-05-23T15:45:51.790Z,15.83
2018-05-23T15:48:20.546Z,16.97
2018-05-23T15:50:48.382Z,17.70
2018-05-23T15:53:16.477Z,15.03
2018-05-23T15:55:46.078Z,16.07
2018-05-23T15:58:14.062Z,15.63
2018-05-23T16:00:42.014Z,14.43
2018-05-23T16:03:09.902Z,16.20
2018-05-23T16:05:38.878Z,15.37
2018-05-23T16:08:06.887Z,14.10
2018-05-23T16:10:34.910Z,13.47
2018-05-23T16:13:02.894Z,14.03
2018-05-23T16:15:30.958Z,14.93
2018-05-23T16:17:59.038Z,14.70
2018-05-23T16:20:26.991Z,14.30
2018-05-23T16:22:55.054Z,12.83
2018-05-23T16:25:23.230Z,13.77
2018-05-23T16:27:51.311Z,13.57
2018-05-23T16:30:19.389Z,12.87
2018-05-23T16:32:47.358Z,13.10
2018-05-23T16:35:15.310Z,13.17
2018-05-23T16:37:43.512Z,13.13
2018-05-23T16:40:11.582Z,13.30
2018-05-23T16:42:40.558Z,13.60
2018-05-23T16:45:08.638Z,14.13
2018-05-23T16:47:36.526Z,13.60
2018-05-23T16:50:05.279Z,13.60
2018-05-23T16:52:33.152Z,13.77
2018-05-23T16:55:01.214Z,12.73
2018-05-23T16:57:29.071Z,14.57
2018-05-23T16:59:56.968Z,14.63
2018-05-23T17:02:24.862Z,15.73
2018-05-23T17:04:53.615Z,14.03
2018-05-23T17:07:21.470Z,14.17
2018-05-23T17:09:49.631Z,14.83
2018-05-23T17:12:17.822Z,13.70
2018-05-23T17:14:45.822Z,14.30
2018-05-23T17:17:14.479Z,12.90
2018-05-23T17:19:42.430Z,13.53
2018-05-23T17:22:10.414Z,14.47
2018-05-23T17:24:40.014Z,13.90
2018-05-23T17:27:08.302Z,13.00
2018-05-23T17:29:36.431Z,14.80
2018-05-23T17:32:04.430Z,14.37
2018-05-23T17:34:33.231Z,13.17
2018-05-23T17:37:01.294Z,13.73
2018-05-23T17:39:29.421Z,14.77
2018-05-23T17:41:57.502Z,14.37
2018-05-23T17:44:25.728Z,15.03
2018-05-23T17:46:54.398Z,14.83
2018-05-23T17:49:22.478Z,14.93
2018-05-23T17:51:50.429Z,15.90
2018-05-23T17:54:18.402Z,14.80
2018-05-23T17:56:46.383Z,13.23
2018-05-23T17:59:15.054Z,14.60
2018-05-23T18:01:43.982Z,14.80
2018-05-23T18:04:12.639Z,13.80
2018-05-23T18:06:40.719Z,14.20
2018-05-23T18:09:08.671Z,13.30
2018-05-23T18:11:36.861Z,14.30
2018-05-23T18:14:04.821Z,13.90
2018-05-23T18:16:33.007Z,13.40
2018-05-23T18:19:01.054Z,12.83
2018-05-23T18:21:28.941Z,12.80
2018-05-23T18:23:56.894Z,12.23
2018-05-23T18:26:24.957Z,11.30
2018-05-23T18:28:52.830Z,12.00
2018-05-23T18:31:20.895Z,12.63
2018-05-23T18:33:48.973Z,11.90
2018-05-23T18:36:17.261Z,12.43
2018-05-23T18:38:45.933Z,13.73
2018-05-23T18:41:14.114Z,13.57
2018-05-23T18:43:42.145Z,12.83
2018-05-23T18:46:10.254Z,14.70
2018-05-23T18:48:38.430Z,14.50
2018-05-23T18:51:07.126Z,13.60
2018-05-23T18:53:35.162Z,13.67
2018-05-23T18:56:03.230Z,14.20
2018-05-23T18:58:31.310Z,13.80
2018-05-23T19:00:59.502Z,13.77
2018-05-23T19:03:27.358Z,13.77
2018-05-23T19:05:55.298Z,14.03
2018-05-23T19:08:23.294Z,16.17
2018-05-23T19:10:51.287Z,13.60
2018-05-23T19:13:19.902Z,12.83
2018-05-23T19:15:47.822Z,13.97
2018-05-23T19:18:16.043Z,14.23
2018-05-23T19:20:45.919Z,15.07
2018-05-23T19:23:13.870Z,14.47
2018-05-23T19:25:41.950Z,15.67
2018-05-23T19:28:09.825Z,15.00
2018-05-23T19:30:38.494Z,15.40
2018-05-23T19:33:06.574Z,15.40
2018-05-23T19:35:34.638Z,15.63
2018-05-23T19:38:02.527Z,15.20
2018-05-23T19:40:31.422Z,14.97
2018-05-23T19:43:00.173Z,15.70
2018-05-23T19:45:29.070Z,15.23
2018-05-23T19:47:57.151Z,24.83
2018-05-23T19:50:26.798Z,56.80
2018-05-23T19:52:54.901Z,86.90
2018-05-23T19:55:22.798Z,105.70
2018-05-23T19:57:51.695Z,107.50
2018-05-23T20:00:19.567Z,113.17
2018-05-23T20:02:47.615Z,110.00
2018-05-23T20:05:15.703Z,95.43
2018-05-23T20:07:43.778Z,90.13
2018-05-23T20:10:14.449Z,83.87
2018-05-23T20:12:44.334Z,68.20
2018-05-23T20:15:12.959Z,46.80
2018-05-23T20:17:43.950Z,35.20
2018-05-23T20:20:12.942Z,26.83
2018-05-23T20:22:41.523Z,24.13
2018-05-23T20:25:09.677Z,20.10
2018-05-23T20:27:40.786Z,22.03
2018-05-23T20:30:10.334Z,19.33
2018-05-23T20:32:40.174Z,17.20
2018-05-23T20:35:08.212Z,16.13
2018-05-23T20:37:37.711Z,15.30
2018-05-23T20:40:07.552Z,15.63
2018-05-23T20:42:37.520Z,14.10
2018-05-23T20:45:06.319Z,14.03
2018-05-23T20:47:35.461Z,13.50
2018-05-23T20:50:04.503Z,13.40
2018-05-23T20:52:32.800Z,13.30
2018-05-23T20:55:02.031Z,13.20
2018-05-23T20:57:31.215Z,15.60
2018-05-23T21:00:04.582Z,14.40
2018-05-23T21:02:36.015Z,14.87
2018-05-23T21:05:05.046Z,14.33
2018-05-23T21:07:35.742Z,14.30
2018-05-23T21:10:06.430Z,13.63
2018-05-23T21:12:38.479Z,14.10
2018-05-23T21:15:14.798Z,13.90
2018-05-23T21:17:45.296Z,12.60
2018-05-23T21:20:15.855Z,13.20
2018-05-23T21:25:23.085Z,13.83
2018-05-23T21:27:54.443Z,13.27
2018-05-23T21:30:27.982Z,13.67
2018-05-23T21:33:01.381Z,13.30
2018-05-23T21:35:36.535Z,12.23
2018-05-23T21:38:05.758Z,12.70
2018-05-23T21:40:34.702Z,12.90
2018-05-23T21:43:04.382Z,11.80
2018-05-23T21:45:35.913Z,14.03
2018-05-23T21:48:06.726Z,14.37
2018-05-23T21:50:35.158Z,13.40
2018-05-23T21:53:05.202Z,12.70
2018-05-23T21:55:34.594Z,12.43
2018-05-23T21:58:02.670Z,12.60
2018-05-23T22:00:30.702Z,12.57
2018-05-23T22:02:58.704Z,14.10
2018-05-23T22:05:26.710Z,13.00
2018-05-23T22:07:58.043Z,14.43
2018-05-23T22:10:26.151Z,13.53
2018-05-23T22:12:55.990Z,13.90
2018-05-23T22:15:24.574Z,13.03
2018-05-23T22:17:53.221Z,12.67
2018-05-23T22:20:21.925Z,14.03
2018-05-23T22:22:50.190Z,13.33
2018-05-23T22:25:18.099Z,13.80
2018-05-23T22:27:46.030Z,13.67
2018-05-23T22:30:13.897Z,13.70
2018-05-23T22:32:41.854Z,14.43
2018-05-23T22:35:09.709Z,15.20
2018-05-23T22:37:38.617Z,13.47
2018-05-23T22:40:06.815Z,14.00
2018-05-23T22:42:35.475Z,14.10
2018-05-23T22:45:03.434Z,15.00
2018-05-23T22:47:31.313Z,15.10
2018-05-23T22:49:59.176Z,15.03
2018-05-23T22:52:27.054Z,13.93
2018-05-23T22:54:54.910Z,13.93
2018-05-23T22:57:22.710Z,14.03
2018-05-23T22:59:51.794Z,14.30
2018-05-23T23:02:20.686Z,14.13
2018-05-23T23:04:49.643Z,14.23
2018-05-23T23:07:17.523Z,12.98
2018-05-23T23:09:45.475Z,14.37
2018-05-23T23:12:13.764Z,14.90
2018-05-23T23:14:41.827Z,13.50
2018-05-23T23:17:09.924Z,13.30
2018-05-23T23:19:37.768Z,15.33
2018-05-23T23:22:05.835Z,14.17
2018-05-23T23:24:34.137Z,15.00
2018-05-23T23:27:02.907Z,13.87
2018-05-23T23:29:31.003Z,15.43
2018-05-23T23:31:59.868Z,14.07
2018-05-23T23:34:27.868Z,13.30
2018-05-23T23:36:56.711Z,13.23
2018-05-23T23:39:25.230Z,14.40
2018-05-23T23:41:54.106Z,14.10
2018-05-23T23:44:22.051Z,14.53
2018-05-23T23:46:50.551Z,14.30
2018-05-23T23:49:18.403Z,15.47
2018-05-23T23:51:46.269Z,14.00
2018-05-23T23:54:14.058Z,13.80
2018-05-23T23:56:41.916Z,15.00
2018-05-23T23:59:10.076Z,13.80
